Time;durP1;ratioP1;P1;durP2;ratioP2;P2;SDS_P1;SDS_P2;PMS_P1;PMS_P2;Temp;Humidity;BMP_temperature;BMP_pressure;BME280_temperature;BME280_humidity;BME280_pressure;Samples;Min_cycle;Max_cycle;Signal;HPM_P1;HPM_P2
2023/04/18 00:00:36;;;;;;;1.40;1.20;;;8.50;99.90;;;;;;5016283;28;20417;-71
2023/04/18 00:03:02;;;;;;;0.60;0.60;;;8.50;99.90;;;;;;5016085;28;20184;-72
2023/04/18 00:05:28;;;;;;;0.40;0.40;;;8.40;99.90;;;;;;5015942;28;20221;-72
2023/04/18 00:07:55;;;;;;;0.60;0.60;;;8.40;99.90;;;;;;5016330;28;20493;-72
2023/04/18 00:10:20;;;;;;;1.02;0.80;;;8.40;99.90;;;;;;5016095;28;20604;-71
2023/04/18 00:12:46;;;;;;;0.80;0.80;;;8.40;99.90;;;;;;5014695;28;20270;-72
2023/04/18 00:15:12;;;;;;;0.70;0.70;;;8.40;99.90;;;;;;5015957;28;20186;-70
2023/04/18 00:17:38;;;;;;;2.88;1.55;;;8.50;99.70;;;;;;5016119;28;20630;-73
2023/04/18 00:20:09;;;;;;;0.80;0.70;;;8.40;99.50;;;;;;5016011;28;20189;-71
2023/04/18 00:22:41;;;;;;;1.50;1.38;;;8.50;99.50;;;;;;5015757;28;20806;-71
2023/04/18 00:25:07;;;;;;;1.25;0.70;;;8.40;99.80;;;;;;5015620;28;20298;-71
2023/04/18 00:27:33;;;;;;;1.77;0.88;;;8.40;99.60;;;;;;5015816;28;20176;-71
2023/04/18 00:29:58;;;;;;;1.30;1.20;;;8.50;99.90;;;;;;5015805;28;20183;-71
2023/04/18 00:32:24;;;;;;;1.67;0.87;;;8.50;99.90;;;;;;5015673;28;20198;-72
2023/04/18 00:34:50;;;;;;;0.80;0.80;;;8.50;99.90;;;;;;5015529;28;20183;-71
2023/04/18 00:37:15;;;;;;;2.10;2.10;;;8.50;99.90;;;;;;5015529;28;20182;-70
2023/04/18 00:39:41;;;;;;;0.70;0.70;;;8.50;99.70;;;;;;5015571;28;20167;-72
2023/04/18 00:42:06;;;;;;;0.53;0.53;;;8.60;99.80;;;;;;5015372;28;20201;-72
2023/04/18 00:44:32;;;;;;;1.53;1.50;;;8.70;99.50;;;;;;5015023;28;20203;-72
2023/04/18 00:46:58;;;;;;;0.63;0.60;;;8.60;99.30;;;;;;5015576;28;20578;-72
2023/04/18 00:49:24;;;;;;;0.90;0.90;;;8.50;99.30;;;;;;5014721;28;20687;-73
2023/04/18 00:51:50;;;;;;;2.88;2.78;;;8.60;99.60;;;;;;5015365;28;20195;-71
2023/04/18 00:54:17;;;;;;;1.20;1.20;;;8.60;99.50;;;;;;5015086;28;20179;-71
2023/04/18 00:56:45;;;;;;;0.82;0.82;;;8.60;99.70;;;;;;5015267;28;20229;-73
2023/04/18 00:59:12;;;;;;;0.93;0.93;;;8.50;99.90;;;;;;5015304;28;20179;-71
2023/04/18 01:01:39;;;;;;;1.23;1.00;;;8.60;99.90;;;;;;5013732;28;20601;-72
2023/04/18 01:04:05;;;;;;;0.93;0.93;;;8.70;99.70;;;;;;5015205;28;20199;-72
2023/04/18 01:06:31;;;;;;;1.25;0.80;;;8.60;99.60;;;;;;5015040;28;20197;-71
2023/04/18 01:08:57;;;;;;;0.60;0.60;;;8.50;99.70;;;;;;5015085;28;20523;-72
2023/04/18 01:11:23;;;;;;;0.93;0.93;;;8.50;99.50;;;;;;5014764;28;20422;-70
2023/04/18 01:14:00;;;;;;;1.40;1.30;;;8.40;99.50;;;;;;5014934;28;20173;-71
2023/04/18 01:16:27;;;;;;;0.95;0.95;;;8.40;99.80;;;;;;5014925;28;20171;-72
2023/04/18 01:18:52;;;;;;;1.45;1.35;;;8.40;99.90;;;;;;5013471;28;20187;-72
2023/04/18 01:21:20;;;;;;;4.33;0.93;;;8.30;99.90;;;;;;5014735;28;20281;-70
2023/04/18 01:23:47;;;;;;;0.73;0.73;;;8.20;99.90;;;;;;5014474;28;21010;-72
2023/04/18 01:26:13;;;;;;;0.98;0.93;;;8.00;99.90;;;;;;5014715;28;20182;-71
2023/04/18 01:28:38;;;;;;;3.07;1.50;;;7.90;99.90;;;;;;5013511;28;20184;-73
2023/04/18 01:31:04;;;;;;;1.80;0.83;;;8.00;99.90;;;;;;5014536;28;20224;-71
2023/04/18 01:33:30;;;;;;;2.17;2.00;;;8.00;99.90;;;;;;5013263;28;20171;-70
2023/04/18 01:35:55;;;;;;;0.83;0.83;;;8.00;99.90;;;;;;5014200;28;20402;-70
2023/04/18 01:38:21;;;;;;;1.00;1.00;;;8.20;99.90;;;;;;5014724;28;20647;-72
2023/04/18 01:40:47;;;;;;;2.40;1.17;;;8.20;99.90;;;;;;5014567;28;20210;-72
2023/04/18 01:43:12;;;;;;;1.33;1.23;;;8.10;99.90;;;;;;5014144;28;20190;-71
2023/04/18 01:45:38;;;;;;;1.00;1.00;;;8.00;99.90;;;;;;5014136;28;20167;-72
2023/04/18 01:48:04;;;;;;;0.77;0.77;;;8.00;99.90;;;;;;5014327;28;20163;-71
2023/04/18 01:50:29;;;;;;;2.60;2.40;;;8.00;99.90;;;;;;5014322;28;20175;-71
2023/04/18 01:52:55;;;;;;;1.80;1.67;;;8.10;99.90;;;;;;5014120;28;20557;-71
2023/04/18 01:55:21;;;;;;;1.00;1.00;;;8.10;99.90;;;;;;5014113;28;20182;-72
2023/04/18 01:57:46;;;;;;;1.50;1.43;;;8.00;99.90;;;;;;5014251;28;20181;-72
2023/04/18 02:00:12;;;;;;;0.50;0.50;;;8.10;99.90;;;;;;5013840;28;20178;-72
2023/04/18 02:02:38;;;;;;;2.93;2.73;;;8.20;99.90;;;;;;5014033;28;20201;-70
2023/04/18 02:05:04;;;;;;;1.03;1.03;;;8.30;99.90;;;;;;5013793;28;20457;-70
2023/04/18 02:07:30;;;;;;;0.60;0.60;;;8.30;99.90;;;;;;5014212;28;20167;-71
2023/04/18 02:09:55;;;;;;;1.57;1.47;;;8.30;99.90;;;;;;5014159;28;20182;-71
2023/04/18 02:12:21;;;;;;;1.13;1.13;;;8.30;99.90;;;;;;5013819;28;20290;-72
2023/04/18 02:14:51;;;;;;;1.37;1.27;;;8.30;99.90;;;;;;5013710;28;20171;-71
2023/04/18 02:17:16;;;;;;;1.25;1.15;;;8.20;99.90;;;;;;5012547;28;20182;-71
2023/04/18 02:19:42;;;;;;;1.57;1.40;;;8.20;99.90;;;;;;5013897;28;20187;-71
2023/04/18 02:22:07;;;;;;;0.60;0.60;;;8.20;99.90;;;;;;5013622;28;20230;-72
2023/04/18 02:24:33;;;;;;;1.13;1.00;;;8.30;99.90;;;;;;5013500;28;20194;-71
2023/04/18 02:26:59;;;;;;;1.10;1.10;;;8.20;99.90;;;;;;5013641;28;20253;-71
2023/04/18 02:29:25;;;;;;;1.08;1.08;;;8.10;99.90;;;;;;5012355;28;20163;-71
2023/04/18 02:31:50;;;;;;;1.90;1.43;;;8.10;99.90;;;;;;5013737;28;20672;-70
2023/04/18 02:34:16;;;;;;;1.63;1.53;;;8.10;99.90;;;;;;5013385;28;20176;-72
2023/04/18 02:36:42;;;;;;;0.60;0.60;;;8.20;99.90;;;;;;5013670;28;20241;-71
2023/04/18 02:39:07;;;;;;;1.43;1.33;;;8.20;99.90;;;;;;5013718;28;20203;-71
2023/04/18 02:41:36;;;;;;;0.90;0.90;;;8.30;99.90;;;;;;5013429;28;20227;-71
2023/04/18 02:44:01;;;;;;;1.27;0.90;;;8.40;99.90;;;;;;5013184;28;20213;-70
2023/04/18 02:46:27;;;;;;;0.97;0.97;;;8.30;99.90;;;;;;5013707;28;20624;-72
2023/04/18 02:48:53;;;;;;;1.50;1.03;;;8.10;99.90;;;;;;5013679;28;20214;-71
2023/04/18 02:51:18;;;;;;;2.20;2.00;;;8.20;99.90;;;;;;5012272;28;20193;-71
2023/04/18 02:53:44;;;;;;;2.17;1.60;;;8.20;99.90;;;;;;5013401;28;20593;-71
2023/04/18 02:56:10;;;;;;;0.93;0.90;;;8.20;99.80;;;;;;5013417;28;20584;-72
2023/04/18 02:58:36;;;;;;;2.35;1.17;;;8.10;99.90;;;;;;5013359;28;20651;-72
2023/04/18 03:01:02;;;;;;;2.30;2.20;;;8.20;99.90;;;;;;5013165;28;20202;-71
2023/04/18 03:03:27;;;;;;;2.10;1.60;;;8.20;99.90;;;;;;5013317;28;20215;-71
2023/04/18 03:05:53;;;;;;;1.43;1.33;;;8.20;99.90;;;;;;5013184;28;20262;-73
2023/04/18 03:08:18;;;;;;;0.77;0.77;;;8.30;99.90;;;;;;5012219;28;20222;-72
2023/04/18 03:10:44;;;;;;;0.77;0.70;;;8.30;99.70;;;;;;5012709;28;20253;-70
2023/04/18 03:13:10;;;;;;;1.63;0.83;;;8.30;99.30;;;;;;5013507;28;20186;-71
2023/04/18 03:15:36;;;;;;;2.93;1.20;;;8.20;99.90;;;;;;5016914;28;20641;-72
2023/04/18 03:18:02;;;;;;;0.85;0.85;;;8.10;99.50;;;;;;5017216;28;20653;-70
2023/04/18 03:20:27;;;;;;;0.53;0.53;;;8.20;99.50;;;;;;5017123;28;20246;-72
2023/04/18 03:22:53;;;;;;;0.93;0.93;;;8.30;99.20;;;;;;5016917;28;20236;-73
2023/04/18 03:25:18;;;;;;;0.80;0.80;;;8.30;99.10;;;;;;5015387;28;20199;-72
2023/04/18 03:27:44;;;;;;;0.97;0.90;;;8.40;99.20;;;;;;5016979;28;21053;-70
2023/04/18 03:30:10;;;;;;;2.40;1.57;;;8.20;99.40;;;;;;5016929;28;20627;-71
2023/04/18 03:32:35;;;;;;;0.80;0.70;;;8.30;99.70;;;;;;5016695;28;20197;-72
2023/04/18 03:35:02;;;;;;;1.10;1.10;;;8.30;99.30;;;;;;5016681;28;20591;-71
2023/04/18 03:37:27;;;;;;;1.80;1.67;;;8.20;99.10;;;;;;5016963;28;20205;-73
2023/04/18 03:39:53;;;;;;;4.47;3.10;;;8.20;99.20;;;;;;5016755;28;20211;-72
2023/04/18 03:42:19;;;;;;;3.88;1.45;;;8.20;99.30;;;;;;5016527;28;20557;-72
2023/04/18 03:44:45;;;;;;;1.00;1.00;;;8.20;99.30;;;;;;5016174;28;20781;-72
2023/04/18 03:47:10;;;;;;;2.27;2.07;;;8.00;99.90;;;;;;5016561;28;20199;-71
2023/04/18 03:49:37;;;;;;;1.03;1.00;;;8.10;99.90;;;;;;5015245;28;20168;-71
2023/04/18 03:52:03;;;;;;;2.78;2.53;;;8.10;99.90;;;;;;5016303;28;20187;-70
2023/04/18 03:54:29;;;;;;;1.37;1.37;;;8.00;99.10;;;;;;5016288;28;20181;-72
2023/04/18 03:56:54;;;;;;;1.43;0.90;;;8.00;99.30;;;;;;5016448;28;20213;-72
2023/04/18 03:59:20;;;;;;;1.77;1.67;;;8.10;99.60;;;;;;5016303;28;20692;-70
2023/04/18 04:01:46;;;;;;;2.30;1.83;;;8.10;99.50;;;;;;5016167;28;20197;-71
2023/04/18 04:04:13;;;;;;;2.43;2.23;;;7.80;99.90;;;;;;5016030;28;20205;-72
2023/04/18 04:06:40;;;;;;;0.95;0.95;;;7.70;99.90;;;;;;5016367;28;20413;-72
2023/04/18 04:09:05;;;;;;;3.03;2.83;;;7.70;99.90;;;;;;5016274;28;20173;-70
2023/04/18 04:11:31;;;;;;;0.77;0.77;;;7.80;99.90;;;;;;5016227;28;20201;-72
2023/04/18 04:13:56;;;;;;;1.97;1.77;;;7.90;99.60;;;;;;5015783;28;20728;-72
2023/04/18 04:16:22;;;;;;;1.33;0.93;;;8.00;99.50;;;;;;5016164;28;20661;-70
2023/04/18 04:18:48;;;;;;;1.03;1.03;;;8.10;98.80;;;;;;5016034;28;20254;-71
2023/04/18 04:21:14;;;;;;;1.47;1.33;;;8.20;98.20;;;;;;5015898;28;20194;-73
2023/04/18 04:23:41;;;;;;;1.88;1.17;;;8.20;98.80;;;;;;5015480;28;20196;-71
2023/04/18 04:26:07;;;;;;;1.15;1.05;;;8.20;98.60;;;;;;5015750;28;20218;-71
2023/04/18 04:28:34;;;;;;;0.93;0.63;;;8.20;99.40;;;;;;5015805;28;20162;-71
2023/04/18 04:31:00;;;;;;;1.20;1.00;;;8.10;99.00;;;;;;5015613;28;20183;-70
2023/04/18 04:33:32;;;;;;;0.80;0.70;;;8.00;98.50;;;;;;5015663;28;20261;-70
2023/04/18 04:35:58;;;;;;;1.65;1.55;;;8.00;98.90;;;;;;5015567;28;20434;-71
2023/04/18 04:38:23;;;;;;;1.90;1.80;;;8.10;98.70;;;;;;5015568;28;20214;-72
2023/04/18 04:40:50;;;;;;;1.33;1.27;;;8.20;98.80;;;;;;5015366;28;20171;-71
2023/04/18 04:43:16;;;;;;;1.10;1.10;;;8.20;99.00;;;;;;5015449;28;20214;-71
2023/04/18 04:45:42;;;;;;;1.60;1.50;;;8.20;99.40;;;;;;5015332;28;20167;-71
2023/04/18 04:48:08;;;;;;;0.85;0.68;;;8.30;99.60;;;;;;5015414;28;20170;-72
2023/04/18 04:50:36;;;;;;;1.13;1.13;;;8.10;99.00;;;;;;5014079;28;20186;-71
2023/04/18 04:53:01;;;;;;;2.13;1.88;;;8.00;99.50;;;;;;5015195;28;20194;-73
2023/04/18 04:55:27;;;;;;;5.40;2.40;;;8.00;99.80;;;;;;5015069;28;20182;-70
2023/04/18 04:57:54;;;;;;;4.20;2.20;;;8.10;99.30;;;;;;5015278;28;20213;-69
2023/04/18 05:00:21;;;;;;;1.45;1.35;;;8.20;99.20;;;;;;5015294;28;20540;-71
2023/04/18 05:02:47;;;;;;;5.38;3.40;;;8.20;99.40;;;;;;5015035;28;20228;-72
2023/04/18 05:05:13;;;;;;;1.63;1.52;;;8.20;99.90;;;;;;5014250;28;20202;-70
2023/04/18 06:52:00;;;;;;;2.03;1.83;;;8.90;99.90;;;;;;4997573;28;20203;-66
2023/04/18 06:54:26;;;;;;;1.53;1.20;;;8.90;99.90;;;;;;4998509;28;20183;-69
2023/04/18 06:56:52;;;;;;;2.37;2.27;;;8.90;99.90;;;;;;4997913;28;20204;-71
2023/04/18 06:59:20;;;;;;;2.10;1.77;;;8.70;99.90;;;;;;4998453;28;20168;-70
2023/04/18 07:01:46;;;;;;;1.20;1.20;;;8.70;99.90;;;;;;4997845;28;20231;-68
2023/04/18 07:04:11;;;;;;;2.67;2.57;;;8.70;99.90;;;;;;4997831;28;20207;-68
2023/04/18 07:06:37;;;;;;;1.70;1.20;;;8.80;99.90;;;;;;4998023;28;20165;-70
2023/04/18 07:09:03;;;;;;;1.07;1.07;;;8.80;99.90;;;;;;4997913;28;20196;-70
2023/04/18 07:11:28;;;;;;;3.37;1.90;;;8.70;99.90;;;;;;4998184;28;20173;-72
2023/04/18 07:13:54;;;;;;;1.03;1.03;;;8.60;99.90;;;;;;4997721;28;20196;-72
2023/04/18 07:16:20;;;;;;;1.63;1.50;;;8.60;99.90;;;;;;4996714;28;20237;-69
2023/04/18 07:18:45;;;;;;;1.23;1.23;;;8.70;99.90;;;;;;4996483;28;20175;-67
2023/04/18 07:21:11;;;;;;;2.87;2.67;;;8.70;99.70;;;;;;4996698;28;20888;-70
2023/04/18 07:23:37;;;;;;;2.77;2.67;;;8.70;99.70;;;;;;4996581;28;20679;-69
2023/04/18 07:26:04;;;;;;;5.50;3.47;;;8.70;99.80;;;;;;4997046;28;20172;-68
2023/04/18 07:28:31;;;;;;;1.83;1.17;;;8.70;99.80;;;;;;4996502;28;20407;-71
2023/04/18 07:30:57;;;;;;;1.23;1.13;;;8.90;99.90;;;;;;4997111;28;20179;-70
2023/04/18 07:33:23;;;;;;;2.00;1.80;;;9.00;99.80;;;;;;4997048;28;20195;-67
2023/04/18 07:35:51;;;;;;;0.68;0.68;;;9.10;99.30;;;;;;4997161;28;20176;-69
2023/04/18 07:38:17;;;;;;;2.40;2.20;;;9.20;99.00;;;;;;4996874;28;20647;-70
2023/04/18 07:40:44;;;;;;;1.70;1.20;;;9.30;99.00;;;;;;4997222;28;20258;-70
2023/04/18 07:43:10;;;;;;;0.88;0.88;;;9.30;98.90;;;;;;4997143;28;20238;-67
2023/04/18 07:45:37;;;;;;;2.37;2.27;;;9.20;98.40;;;;;;4996943;28;20691;-69
2023/04/18 07:48:03;;;;;;;1.35;1.25;;;9.20;98.90;;;;;;4996720;28;20192;-71
2023/04/18 07:50:29;;;;;;;3.38;2.63;;;9.20;98.90;;;;;;4995675;28;20177;-70
2023/04/18 07:52:55;;;;;;;1.23;1.13;;;9.20;99.00;;;;;;4996501;28;20690;-69
2023/04/18 07:55:20;;;;;;;2.70;2.60;;;9.30;98.40;;;;;;4996741;28;20172;-69
2023/04/18 07:57:49;;;;;;;3.87;2.30;;;9.10;98.70;;;;;;4996730;28;20168;-70
2023/04/18 08:00:16;;;;;;;2.90;2.20;;;9.10;99.20;;;;;;4996254;28;20196;-71
2023/04/18 08:02:42;;;;;;;2.15;2.05;;;9.30;98.80;;;;;;4996599;28;20606;-69
2023/04/18 08:05:08;;;;;;;2.17;1.93;;;9.40;99.20;;;;;;4996643;28;20200;-70
2023/04/18 08:07:35;;;;;;;1.58;1.48;;;9.60;98.90;;;;;;4996504;28;20207;-70
2023/04/18 08:10:00;;;;;;;1.02;1.02;;;9.70;98.10;;;;;;4996583;28;20168;-69
2023/04/18 08:12:26;;;;;;;3.60;3.30;;;9.70;97.80;;;;;;4996511;28;20200;-69
2023/04/18 08:14:52;;;;;;;3.20;2.13;;;9.50;97.70;;;;;;4995132;28;20168;-70
2023/04/18 08:17:17;;;;;;;4.30;3.93;;;9.40;98.00;;;;;;4996068;28;20176;-72
2023/04/18 08:19:44;;;;;;;1.57;1.47;;;9.20;98.20;;;;;;4996392;28;20176;-72
2023/04/18 08:22:10;;;;;;;1.40;1.35;;;9.30;98.30;;;;;;4996209;28;20188;-71
2023/04/18 08:24:37;;;;;;;3.53;3.22;;;9.30;98.10;;;;;;4996083;28;20282;-68
2023/04/18 08:27:04;;;;;;;4.03;2.58;;;9.40;98.30;;;;;;4995981;28;20165;-69
2023/04/18 08:29:29;;;;;;;2.92;2.42;;;9.50;98.60;;;;;;4996120;28;20176;-66
2023/04/18 08:31:55;;;;;;;2.97;1.80;;;9.60;98.30;;;;;;4996009;28;20183;-68
2023/04/18 08:34:21;;;;;;;3.07;1.87;;;9.60;97.70;;;;;;4996095;28;20415;-67
2023/04/18 08:36:47;;;;;;;1.03;1.03;;;9.30;98.30;;;;;;4995922;28;20624;-67
2023/04/18 08:39:12;;;;;;;1.63;1.53;;;9.40;98.10;;;;;;4995933;28;20176;-71
2023/04/18 08:41:41;;;;;;;4.43;2.57;;;9.30;98.30;;;;;;4996485;28;20172;-67
2023/04/18 08:44:07;;;;;;;3.08;2.88;;;9.30;98.70;;;;;;4995806;28;20210;-71
2023/04/18 08:46:34;;;;;;;1.97;1.80;;;9.40;99.20;;;;;;4994453;28;20279;-71
2023/04/18 08:49:03;;;;;;;3.08;2.85;;;9.60;98.90;;;;;;4995750;28;20218;-70
2023/04/18 08:51:31;;;;;;;1.80;1.70;;;9.60;98.10;;;;;;4995897;28;20168;-68
2023/04/18 08:54:03;;;;;;;1.42;1.35;;;9.60;98.30;;;;;;4995764;28;20196;-66
2023/04/18 08:56:29;;;;;;;2.53;2.40;;;9.80;98.10;;;;;;4995887;28;20188;-68
2023/04/18 08:58:58;;;;;;;2.67;1.98;;;9.70;97.80;;;;;;4995490;28;20203;-68
2023/04/18 09:01:58;;;;;;;1.40;1.20;;;9.60;97.80;;;;;;4995511;28;20534;-68
2023/04/18 09:04:35;;;;;;;1.65;1.52;;;9.70;98.10;;;;;;4995444;28;20223;-68
2023/04/18 09:07:06;;;;;;;3.45;3.15;;;9.70;97.90;;;;;;4993950;28;20175;-66
2023/04/18 09:09:52;;;;;;;2.97;2.78;;;9.60;98.00;;;;;;4995407;28;20495;-68
2023/04/18 09:12:21;;;;;;;1.85;1.70;;;9.60;97.60;;;;;;4995019;28;20283;-69
2023/04/18 09:14:49;;;;;;;2.05;1.95;;;9.70;97.40;;;;;;4995186;28;20169;-68
2023/04/18 09:17:33;;;;;;;1.70;1.60;;;9.70;97.20;;;;;;4995253;28;20190;-71
2023/04/18 09:20:08;;;;;;;2.70;1.50;;;9.80;97.90;;;;;;4995449;28;20171;-69
2023/04/18 09:22:47;;;;;;;1.33;1.23;;;9.80;97.70;;;;;;4995230;28;20202;-70
2023/04/18 09:25:36;;;;;;;0.60;0.60;;;9.70;97.40;;;;;;4995056;28;20254;-70
2023/04/18 09:28:03;;;;;;;1.98;1.88;;;9.60;97.80;;;;;;4994901;28;20263;-71
2023/04/18 09:30:38;;;;;;;3.30;1.92;;;9.10;98.40;;;;;;4995064;28;20179;-68
2023/04/18 09:33:08;;;;;;;3.08;1.63;;;9.20;99.10;;;;;;4994895;28;20198;-69
2023/04/18 09:35:37;;;;;;;1.73;1.63;;;9.40;98.20;;;;;;4994881;28;20164;-70
2023/04/18 09:38:04;;;;;;;6.35;1.70;;;9.60;98.00;;;;;;4994740;28;20175;-68
2023/04/18 09:40:30;;;;;;;0.93;0.93;;;9.70;97.60;;;;;;4995098;28;20168;-67
2023/04/18 09:42:56;;;;;;;2.08;2.03;;;9.80;97.60;;;;;;4994746;28;20651;-70
2023/04/18 09:45:23;;;;;;;1.47;1.40;;;10.00;96.60;;;;;;4994867;28;20257;-72
2023/04/18 09:47:50;;;;;;;4.03;2.50;;;9.90;97.30;;;;;;4994672;28;20260;-70
2023/04/18 09:50:17;;;;;;;4.22;3.65;;;9.90;96.70;;;;;;4994789;28;20180;-72
2023/04/18 09:52:44;;;;;;;4.53;3.53;;;10.00;96.40;;;;;;4994434;28;20204;-67
2023/04/18 09:55:15;;;;;;;2.38;1.48;;;10.20;95.80;;;;;;4994630;28;20176;-70
2023/04/18 09:57:44;;;;;;;0.65;0.65;;;10.00;96.00;;;;;;4994575;28;20243;-68
2023/04/18 10:00:25;;;;;;;1.77;1.67;;;10.10;96.30;;;;;;4994647;28;20168;-71
2023/04/18 10:02:53;;;;;;;2.35;2.25;;;10.10;96.40;;;;;;4994805;28;20191;-71
2023/04/18 10:05:20;;;;;;;1.80;1.52;;;10.30;95.90;;;;;;4994364;28;20215;-69
2023/04/18 10:07:48;;;;;;;3.80;2.60;;;10.50;95.90;;;;;;4994181;28;20164;-70
2023/04/18 10:10:14;;;;;;;3.55;2.20;;;10.50;95.70;;;;;;4994400;28;20168;-70
2023/04/18 10:12:40;;;;;;;4.57;2.20;;;10.70;95.80;;;;;;4994358;28;20625;-71
2023/04/18 10:15:08;;;;;;;3.70;3.33;;;11.20;95.80;;;;;;4994167;28;20180;-70
2023/04/18 10:18:08;;;;;;;1.83;1.73;;;11.60;94.20;;;;;;4994066;28;20430;-69
2023/04/18 10:20:34;;;;;;;3.17;2.93;;;11.80;93.50;;;;;;4982992;28;20574;-71
2023/04/18 10:23:36;;;;;;;4.43;2.43;;;11.80;92.70;;;;;;4993941;28;20518;-67
2023/04/18 10:26:07;;;;;;;3.37;2.40;;;11.50;92.90;;;;;;4994162;28;20403;-69
2023/04/18 10:29:02;;;;;;;8.40;3.23;;;11.40;93.50;;;;;;4993973;28;20592;-72
2023/04/18 10:31:28;;;;;;;1.83;1.73;;;11.50;92.80;;;;;;4981597;28;20419;-70
2023/04/18 10:33:57;;;;;;;1.63;1.53;;;11.60;92.50;;;;;;4994152;28;20427;-68
2023/04/18 10:36:23;;;;;;;3.90;2.33;;;11.70;92.70;;;;;;4994029;28;20717;-70
2023/04/18 10:38:53;;;;;;;2.90;1.83;;;12.00;93.50;;;;;;4993827;28;20403;-70
2023/04/18 10:41:32;;;;;;;5.63;2.70;;;12.40;92.10;;;;;;4994331;28;20414;-70
2023/04/18 10:44:10;;;;;;;1.50;1.40;;;13.00;91.20;;;;;;4992543;28;20482;-68
2023/04/18 10:46:37;;;;;;;2.00;1.80;;;13.30;90.40;;;;;;4993886;28;20895;-69
2023/04/18 10:49:14;;;;;;;2.67;1.40;;;13.00;90.10;;;;;;4993744;28;20490;-70
2023/04/18 10:51:39;;;;;;;1.53;1.43;;;13.00;90.00;;;;;;4993848;28;20430;-69
2023/04/18 10:54:08;;;;;;;2.60;1.83;;;12.80;91.10;;;;;;4992501;28;20447;-68
2023/04/18 10:56:34;;;;;;;3.13;2.30;;;12.20;91.30;;;;;;4994040;28;20526;-70
2023/04/18 10:59:03;;;;;;;1.73;1.73;;;11.90;91.80;;;;;;4993742;28;20413;-71
2023/04/18 11:01:31;;;;;;;1.67;1.57;;;12.00;91.70;;;;;;4993803;28;20427;-67
2023/04/18 11:03:57;;;;;;;3.07;2.87;;;11.60;91.70;;;;;;4993767;28;20478;-72
2023/04/18 11:06:26;;;;;;;2.70;2.27;;;11.60;91.70;;;;;;4993902;28;20415;-70
2023/04/18 11:09:10;;;;;;;4.33;3.00;;;11.80;91.70;;;;;;4993685;28;20399;-71
2023/04/18 11:11:36;;;;;;;2.27;2.17;;;12.10;91.40;;;;;;4994146;28;20399;-70
2023/04/18 11:14:02;;;;;;;2.07;1.87;;;12.20;91.00;;;;;;4993576;28;20434;-70
2023/04/18 11:16:29;;;;;;;2.23;2.03;;;12.10;90.70;;;;;;4993691;28;20179;-68
2023/04/18 11:18:55;;;;;;;1.60;1.50;;;12.00;91.10;;;;;;4993546;28;20539;-69
2023/04/18 11:21:24;;;;;;;2.00;1.80;;;12.10;91.20;;;;;;4993613;28;20415;-73
2023/04/18 11:23:50;;;;;;;2.03;1.80;;;12.00;90.90;;;;;;4993623;28;20255;-69
2023/04/18 11:26:18;;;;;;;2.87;2.23;;;12.10;90.70;;;;;;4993532;28;20743;-70
2023/04/18 11:28:49;;;;;;;3.23;2.83;;;12.20;91.00;;;;;;4993371;28;20195;-70
2023/04/18 11:31:15;;;;;;;3.60;3.00;;;12.30;90.50;;;;;;4993590;28;20406;-71
2023/04/18 11:33:41;;;;;;;7.00;3.87;;;12.20;91.60;;;;;;4994266;28;20427;-67
2023/04/18 11:36:07;;;;;;;2.97;2.70;;;12.60;90.60;;;;;;4997262;28;20168;-71
2023/04/18 11:38:33;;;;;;;2.83;2.53;;;13.00;91.10;;;;;;4996839;28;20164;-68
2023/04/18 11:41:01;;;;;;;1.70;1.60;;;13.20;90.70;;;;;;4997240;28;20764;-69
2023/04/18 11:43:27;;;;;;;2.43;1.63;;;12.70;91.00;;;;;;4996782;28;20431;-69
2023/04/18 11:45:54;;;;;;;2.07;1.97;;;12.50;91.30;;;;;;4996991;28;20414;-70
2023/04/18 11:48:20;;;;;;;2.47;2.37;;;12.40;91.20;;;;;;4995647;28;20652;-70
2023/04/18 11:50:46;;;;;;;1.47;1.17;;;12.20;91.10;;;;;;4997108;28;20566;-70
2023/04/18 11:53:11;;;;;;;3.83;3.20;;;12.10;91.60;;;;;;4996683;28;20214;-68
2023/04/18 11:55:37;;;;;;;5.93;3.77;;;12.40;91.20;;;;;;4997240;28;20172;-71
2023/04/18 11:58:03;;;;;;;1.43;1.33;;;12.60;91.60;;;;;;4996707;28;20176;-71
2023/04/18 12:00:34;;;;;;;1.30;1.20;;;13.00;90.70;;;;;;4996758;28;20250;-70
2023/04/18 12:03:03;;;;;;;1.03;1.00;;;13.30;90.60;;;;;;4996708;28;20194;-71
2023/04/18 12:05:31;;;;;;;2.00;1.53;;;13.70;90.60;;;;;;4996393;28;20453;-70
2023/04/18 12:08:18;;;;;;;2.90;2.70;;;13.90;90.40;;;;;;4996473;28;20400;-69
2023/04/18 12:10:51;;;;;;;3.80;3.17;;;13.80;87.80;;;;;;4996705;28;20503;-71
2023/04/18 12:13:22;;;;;;;2.20;1.47;;;13.20;88.00;;;;;;4996667;28;20428;-70
2023/04/18 12:15:48;;;;;;;1.70;1.60;;;13.20;90.50;;;;;;4996499;28;20492;-70
2023/04/18 12:18:16;;;;;;;2.50;2.40;;;13.10;91.20;;;;;;4996254;28;20439;-69
2023/04/18 12:20:48;;;;;;;3.47;2.10;;;12.90;90.40;;;;;;4996358;28;20203;-71
2023/04/18 12:23:34;;;;;;;2.47;2.30;;;12.80;90.60;;;;;;4995066;28;20856;-70
2023/04/18 12:26:05;;;;;;;1.53;1.47;;;13.00;90.10;;;;;;4996471;28;20505;-71
2023/04/18 12:28:32;;;;;;;2.43;1.07;;;13.00;90.00;;;;;;4996050;28;20474;-69
2023/04/18 12:30:58;;;;;;;2.00;1.60;;;13.20;90.60;;;;;;4996439;28;20486;-69
2023/04/18 12:33:24;;;;;;;1.87;1.70;;;12.90;89.70;;;;;;4996024;28;21000;-70
2023/04/18 12:35:51;;;;;;;2.03;1.63;;;13.00;90.20;;;;;;4996198;28;20490;-71
2023/04/18 12:38:21;;;;;;;3.63;3.43;;;13.30;89.30;;;;;;4995798;28;20411;-70
2023/04/18 12:40:47;;;;;;;2.87;2.63;;;12.90;89.90;;;;;;4996244;28;20494;-69
2023/04/18 12:43:12;;;;;;;0.80;0.80;;;12.70;89.80;;;;;;4995842;28;20534;-71
2023/04/18 12:45:38;;;;;;;1.30;1.20;;;12.70;89.50;;;;;;4995811;28;20533;-71
2023/04/18 12:48:04;;;;;;;1.67;1.57;;;12.80;90.00;;;;;;4995768;28;20186;-68
2023/04/18 12:50:29;;;;;;;1.13;1.13;;;12.90;89.10;;;;;;4996149;28;20171;-69
2023/04/18 12:52:59;;;;;;;3.10;1.77;;;13.00;88.20;;;;;;4994335;28;20291;-67
2023/04/18 12:55:26;;;;;;;1.40;1.30;;;13.30;88.10;;;;;;4994478;28;20199;-71
2023/04/18 12:57:56;;;;;;;2.33;2.00;;;13.60;87.40;;;;;;4995507;28;20412;-70
2023/04/18 13:00:24;;;;;;;3.77;2.10;;;13.60;86.50;;;;;;4995671;28;20418;-71
2023/04/18 13:02:51;;;;;;;1.97;1.73;;;13.30;87.20;;;;;;4995578;28;20431;-69
2023/04/18 13:05:18;;;;;;;2.23;2.03;;;13.40;87.20;;;;;;4995544;28;20446;-70
2023/04/18 13:07:46;;;;;;;1.80;1.70;;;13.70;87.90;;;;;;4995480;28;20872;-69
2023/04/18 13:10:23;;;;;;;1.90;1.70;;;13.80;86.10;;;;;;4995604;28;20408;-69
2023/04/18 13:12:50;;;;;;;4.37;3.50;;;14.00;85.60;;;;;;4995529;28;20430;-70
2023/04/18 13:15:16;;;;;;;2.27;2.07;;;13.90;84.50;;;;;;4994713;28;20412;-72
2023/04/18 13:17:43;;;;;;;2.43;2.13;;;13.60;85.60;;;;;;4994841;28;20415;-72
2023/04/18 13:20:11;;;;;;;2.13;2.00;;;13.70;85.30;;;;;;4994094;28;20443;-70
2023/04/18 13:22:37;;;;;;;4.80;2.30;;;13.50;85.50;;;;;;4993640;28;20440;-72
2023/04/18 13:25:03;;;;;;;1.33;1.10;;;13.20;86.30;;;;;;4994073;28;20466;-70
2023/04/18 13:27:29;;;;;;;1.70;1.60;;;12.60;89.20;;;;;;4994188;28;20481;-69
2023/04/18 13:29:56;;;;;;;1.83;1.73;;;11.80;90.50;;;;;;4994585;28;20500;-70
2023/04/18 13:32:21;;;;;;;3.40;1.90;;;11.90;90.90;;;;;;4994473;28;20548;-69
2023/04/18 13:34:47;;;;;;;2.70;2.37;;;12.00;91.00;;;;;;4994537;28;20494;-68
2023/04/18 13:37:13;;;;;;;4.47;1.47;;;12.20;90.80;;;;;;4994627;28;20199;-69
2023/04/18 13:39:40;;;;;;;2.67;1.53;;;12.60;90.50;;;;;;4995411;28;20470;-69
2023/04/18 13:42:06;;;;;;;2.33;2.13;;;13.00;90.30;;;;;;4994259;28;20422;-70
2023/04/18 13:44:32;;;;;;;2.90;2.13;;;13.30;88.60;;;;;;4994794;28;20526;-70
2023/04/18 13:46:59;;;;;;;1.87;1.73;;;13.60;87.80;;;;;;4994572;28;20416;-70
2023/04/18 13:49:25;;;;;;;1.93;1.83;;;13.40;85.80;;;;;;4994815;28;20490;-70
2023/04/18 13:51:56;;;;;;;2.53;2.27;;;13.10;86.30;;;;;;4994538;28;20523;-68
2023/04/18 13:54:23;;;;;;;1.90;1.80;;;12.90;87.00;;;;;;4994698;28;20164;-69
2023/04/18 13:56:48;;;;;;;4.80;2.23;;;12.80;88.30;;;;;;4993835;28;20408;-69
2023/04/18 13:59:14;;;;;;;3.87;3.53;;;12.80;89.70;;;;;;4994875;28;20469;-67
2023/04/18 14:01:40;;;;;;;1.63;1.53;;;13.20;89.80;;;;;;4994829;28;20523;-69
2023/04/18 14:04:05;;;;;;;1.60;1.50;;;13.50;88.90;;;;;;4994139;28;20247;-70
2023/04/18 14:06:31;;;;;;;5.13;1.70;;;13.80;87.10;;;;;;4993944;28;20169;-71
2023/04/18 14:08:58;;;;;;;2.30;1.40;;;13.80;85.30;;;;;;4994408;28;20171;-70
2023/04/18 14:11:23;;;;;;;2.07;1.93;;;13.50;85.30;;;;;;4994595;28;20757;-70
2023/04/18 14:13:49;;;;;;;3.17;2.87;;;13.20;86.60;;;;;;4994675;28;20435;-71
2023/04/18 14:16:15;;;;;;;2.77;1.87;;;13.20;90.10;;;;;;4994375;28;20172;-71
2023/04/18 14:18:41;;;;;;;3.60;3.30;;;13.40;89.00;;;;;;4994215;28;20176;-71
2023/04/18 14:21:07;;;;;;;4.03;2.13;;;13.40;88.90;;;;;;4994856;28;20481;-71
2023/04/18 14:23:34;;;;;;;2.50;1.80;;;13.50;88.30;;;;;;4994306;28;20196;-71
2023/04/18 14:26:00;;;;;;;1.77;1.67;;;13.80;87.40;;;;;;4994473;28;20164;-71
2023/04/18 14:28:26;;;;;;;2.20;1.90;;;14.10;85.30;;;;;;4993994;28;20447;-70
2023/04/18 14:30:56;;;;;;;1.97;1.77;;;14.20;85.20;;;;;;4994282;28;20172;-71
2023/04/18 14:33:22;;;;;;;2.83;2.00;;;14.30;85.10;;;;;;4994810;28;20427;-71
2023/04/18 14:35:48;;;;;;;3.23;3.03;;;14.10;85.20;;;;;;4994083;28;20411;-70
2023/04/18 14:38:14;;;;;;;1.57;1.47;;;14.00;86.70;;;;;;4994104;28;20482;-71